Perry Park, Kentucky
Current Conditions -  °F | °C
As of 3:53 PM on Saturday 22 Nov 2014 (Local Time) from KFFT Reporting Station
Overcast Overcast  
Wind Chill: 61°   Ceiling: 11000
Heat Index: 61°   Visibility: 10mi
Dew Point: 33°   Wind: 17mph
Humidity: 35%   Direction: 220°SW
Pressure: 30.14"   Gusts: 26mph
Location:  38.55°N, 85°W
Report Text: KFFT 222053Z AUTO 22015G23KT 10SM FEW070 OVC110 16/01 A3014 RMK AO2 SLP209 T01610006 56020
Loading
Personal Weather Stations






























Interactive Weather Map New forecast layout! Learn more

10-Day Weather Forecast

Advertisements
Track Severe Weather on mobile